Flight Track Log - Related Links

Times and Time Zones

All times are in EST time to prevent confusion due to time zone crossing. See the SWA757 flight status page for this flight to view local times or setup timezone preferences in your user account.

Time Position Orientation Groundspeed Altitude Reporting Facility
EST Latitude Longitude Course Direction KTS MPH feet Rate Location/Type
Thu 03:16:36 PM 29.6356 -95.2675 21° North 146 168 600  Level Houston Center
Thu 03:17:50 PM 29.6800 -95.2478 21° North 230 265 3,400 2,188 Climbing Houston Center
Thu 03:18:12 PM 29.6972 -95.2525 347° North 219 252 4,100 1,672 Climbing Houston Center
Thu 03:18:51 PM 29.7514 -95.2703 344° North 278 320 5,100 968 Climbing Houston Center
Thu 03:19:14 PM 29.7681 -95.2742 349° North 269 310 5,100 3,107 Level Houston Center
Thu 03:19:47 PM 29.8203 -95.2908 345° North 280 322 8,000 3,810 Climbing Houston Center
Thu 03:20:17 PM 29.8431 -95.2958 349° North 279 321 9,100 2,804 Climbing Houston Center
Thu 03:21:19 PM 29.9383 -95.3456 336° Northwest 316 364 12,300 3,194 Climbing Houston Center
Thu 03:22:21 PM 30.0267 -95.3906 336° Northwest 345 397 15,700 3,048 Climbing Houston Center
Thu 03:23:23 PM 30.1206 -95.4397 336° Northwest 366 421 18,600 2,661 Climbing Houston Center
Thu 03:24:25 PM 30.2175 -95.4889 336° Northwest 377 434 21,200 2,371 Climbing Houston Center
Thu 03:25:27 PM 30.3206 -95.5408 336° Northwest 398 458 23,500 2,081 Climbing Houston Center
Thu 03:26:29 PM 30.4267 -95.5972 335° Northwest 412 474 25,500 1,935 Climbing Houston Center
Thu 03:27:31 PM 30.5603 -95.6661 336° Northwest 432 497 27,500 1,680 Climbing Houston Center
Thu 03:28:34 PM 30.6764 -95.7269 336° Northwest 448 516 29,000 1,440 Climbing Houston Center
Thu 03:29:36 PM 30.7978 -95.7922 335° Northwest 468 539 30,500 1,887 Climbing Houston Center
Thu 03:30:38 PM 30.9186 -95.8567 335° Northwest 474 545 32,900 2,177 Climbing Houston Center
Thu 03:31:40 PM 31.0319 -95.9181 335° Northwest 453 521 35,000 1,742 Climbing Houston Center
Thu 03:32:42 PM 31.1442 -95.9767 336° Northwest 442 509 36,500 1,355 Climbing Houston Center
Thu 03:33:44 PM 31.2889 -96.0314 342° North 450 518 37,800 726 Climbing Houston Center
Thu 03:34:46 PM 31.4108 -96.0783 342° North 458 527 38,000 96 Climbing Houston Center
Thu 03:35:49 PM 31.5278 -96.1250 341° North 455 524 38,000  Level Houston Center
Thu 03:36:51 PM 31.6483 -96.1714 342° North 453 521 38,000  Level Houston Center
Thu 03:37:21 PM 31.7106 -96.1922 344° North 445 512 38,000  Level Fort Worth Center
Thu 03:38:21 PM 31.8281 -96.2397 341° North 454 522 38,000  Level Fort Worth Center
Thu 03:39:20 PM 31.9433 -96.2897 340° North 447 514 38,000  Level Fort Worth Center
Thu 03:40:21 PM 32.0625 -96.3372 341° North 447 514 38,000  Level Fort Worth Center
Thu 03:41:21 PM 32.1819 -96.3825 342° North 447 514 38,000  Level Fort Worth Center
Thu 03:42:21 PM 32.3014 -96.4278 342° North 452 520 38,000  Level Fort Worth Center
Thu 03:43:21 PM 32.4208 -96.4733 342° North 447 514 38,000  Level Fort Worth Center
Thu 03:44:21 PM 32.5400 -96.5189 342° North 447 514 38,000  Level Fort Worth Center
Thu 03:45:21 PM 32.6594 -96.5644 342° North 447 514 38,000  Level Fort Worth Center
Thu 03:46:21 PM 32.7808 -96.6078 343° North 447 514 38,000  Level Fort Worth Center
Thu 03:47:21 PM 32.9022 -96.6564 341° North 447 514 38,000  Level Fort Worth Center
Thu 03:48:21 PM 33.0214 -96.7025 342° North 447 514 38,000  Level Fort Worth Center
Thu 03:49:21 PM 33.1572 -96.7508 343° North 447 514 38,000  Level Fort Worth Center
Thu 03:50:21 PM 33.2828 -96.7872 346° North 447 514 38,000  Level Fort Worth Center
Thu 03:51:21 PM 33.4039 -96.8236 346° North 452 520 38,000 -50 Level Fort Worth Center
Thu 03:52:21 PM 33.5253 -96.8628 345° North 452 520 37,900 -1,150 Descending Fort Worth Center
Thu 03:53:21 PM 33.6464 -96.8994 346° North 452 520 35,700 -2,600 Descending Fort Worth Center
Thu 03:54:21 PM 33.7739 -96.9386 346° North 452 520 32,700 -2,750 Descending Fort Worth Center
Thu 03:55:21 PM 33.8950 -96.9756 346° North 453 521 30,200 -2,400 Descending Fort Worth Center
Thu 03:56:21 PM 34.0161 -97.0125 346° North 453 521 27,900 -2,150 Descending Fort Worth Center
Thu 03:57:21 PM 34.1228 -97.0522 343° North 447 514 25,900 -2,100 Descending Fort Worth Center
Thu 03:58:21 PM 34.2375 -97.0869 346° North 431 496 23,700 -2,200 Descending Fort Worth Center
Thu 03:59:21 PM 34.3483 -97.1192 347° North 419 482 21,500 -2,150 Descending Fort Worth Center
Thu 04:00:21 PM 34.4589 -97.1542 345° North 409 471 19,400 -2,000 Descending Fort Worth Center
Thu 04:01:21 PM 34.5611 -97.1867 345° North 396 456 17,500 -2,050 Descending Fort Worth Center
Thu 04:02:21 PM 34.6614 -97.2167 346° North 380 437 15,300 -2,317 Descending Fort Worth Center
Thu 04:03:02 PM 34.7450 -97.2417 346° North 368 423 13,600 -2,100 Descending Fort Worth Center
Thu 04:03:21 PM 34.7617 -97.2492 340° North 370 426 13,200 -1,953 Descending Fort Worth Center
Thu 04:03:45 PM 34.8097 -97.2642 346° North 363 418 12,200 -1,900 Descending Fort Worth Center
Thu 04:04:21 PM 34.8556 -97.2794 345° North 365 420 11,300 -1,522 Descending Fort Worth Center
Thu 04:04:52 PM 34.9097 -97.3097 335° Northwest 324 373 10,500 -1,100 Descending Fort Worth Center
Thu 04:05:21 PM 34.9369 -97.3275 332° Northwest 341 392 10,200 -1,377 Descending Fort Worth Center
Thu 04:05:53 PM 34.9808 -97.3603 329° Northwest 282 325 9,100 -1,696 Descending Fort Worth Center
Thu 04:06:53 PM 35.0517 -97.4058 332° Northwest 284 327 7,600 -1,364 Descending Fort Worth Center
Thu 04:07:21 PM 35.0767 -97.4236 330° Northwest 290 334 7,100 -1,309 Descending Fort Worth Center
Thu 04:07:48 PM 35.1183 -97.4517 331° Northwest 290 334 6,400 -1,100 Descending Fort Worth Center
Thu 04:08:21 PM 35.1517 -97.4617 346° North 285 328 6,000 -490 Descending Fort Worth Center
Thu 04:08:37 PM 35.1789 -97.4619 360° North 298 343 6,000 -600 Level Fort Worth Center
Thu 04:09:21 PM 35.2331 -97.4594 North 279 321 5,400 -759 Descending Fort Worth Center
Thu 04:09:56 PM 35.2872 -97.4644 356° North 284 327 5,000 -400 Descending Fort Worth Center
Thu 04:10:21 PM 35.3103 -97.4619 North 279 321 5,000 -250 Level Fort Worth Center
Thu 04:10:44 PM 35.3458 -97.4669 353° North 271 312 4,800 -900 Descending Fort Worth Center
Thu 04:11:21 PM 35.3853 -97.4644 North 273 314 4,100 -787 Descending Fort Worth Center
Thu 04:11:45 PM 35.4144 -97.4747 344° North 237 273 4,000 -300 Descending Fort Worth Center
Thu 04:12:21 PM 35.4519 -97.4875 344° North 251 289 3,800 -393 Descending Fort Worth Center
Thu 04:12:46 PM 35.4686 -97.5078 315° West 190 219 3,600 -700 Descending Fort Worth Center
Thu 04:13:21 PM 35.4769 -97.5386 288° West 175 201 3,100 -716 Descending Fort Worth Center
Thu 04:13:53 PM 35.4728 -97.5692 261° West 165 190 2,800 -500 Descending Fort Worth Center
Thu 04:14:21 PM 35.4667 -97.5894 250° West 150 173 2,600 -590 Descending Fort Worth Center
Thu 04:14:54 PM 35.4458 -97.5919 186° South 119 137 2,200 -700 Descending Fort Worth Center
Thu 04:15:21 PM 35.4311 -97.5944 188° South 94 108 1,900 -689 Descending Fort Worth Center
Thu 04:15:55 PM 35.4103 -97.5919 174° South 119 137 1,500 -500 Descending Fort Worth Center
Thu 04:16:21 PM 35.4039 -97.5944 198° South 100 115 1,400 -231 Descending Fort Worth Center
Thu 04:19:00 PM 35.3931 -97.6008 North  Level Estimated

Login

Don't have an account? Register now (free) for customized features, flight alerts, and more!